createdAt,value
2023-04-30T00:01:05.078Z,1.60
2023-04-30T00:04:30.086Z,2.00
2023-04-30T00:07:55.559Z,1.60
2023-04-30T00:11:19.614Z,2.83
2023-04-30T00:14:45.168Z,1.80
2023-04-30T00:18:12.942Z,2.23
2023-04-30T00:21:36.913Z,1.77
2023-04-30T00:25:01.271Z,1.87
2023-04-30T00:28:25.625Z,4.40
2023-04-30T00:31:49.446Z,2.07
2023-04-30T00:35:14.672Z,2.00
2023-04-30T00:38:38.122Z,2.20
2023-04-30T00:42:02.439Z,2.17
2023-04-30T00:45:25.894Z,1.80
2023-04-30T00:48:50.347Z,2.20
2023-04-30T00:52:15.941Z,1.60
2023-04-30T00:55:40.264Z,2.17
2023-04-30T00:59:04.052Z,1.70
2023-04-30T01:02:27.722Z,1.70
2023-04-30T01:05:53.673Z,2.47
2023-04-30T01:09:19.027Z,2.67
2023-04-30T01:12:50.621Z,4.80
2023-04-30T01:16:23.803Z,2.93
2023-04-30T01:19:48.459Z,2.30
2023-04-30T01:23:28.655Z,2.40
2023-04-30T01:27:14.740Z,3.37
2023-04-30T01:30:44.795Z,2.30
2023-04-30T01:34:08.624Z,2.17
2023-04-30T01:37:41.159Z,2.70
2023-04-30T01:41:15.071Z,2.33
2023-04-30T01:45:05.914Z,2.97
2023-04-30T01:48:44.699Z,2.20
2023-04-30T01:52:18.874Z,2.20
2023-04-30T01:55:48.567Z,3.30
2023-04-30T01:59:15.758Z,9.70
2023-04-30T02:02:39.355Z,2.47
2023-04-30T02:06:04.726Z,2.50
2023-04-30T02:09:28.571Z,3.17
2023-04-30T02:12:52.816Z,2.60
2023-04-30T02:16:16.757Z,2.63
2023-04-30T02:19:40.601Z,2.70
2023-04-30T02:23:05.923Z,3.13
2023-04-30T02:26:29.686Z,2.63
2023-04-30T02:29:54.035Z,2.57
2023-04-30T02:33:17.869Z,3.10
2023-04-30T02:36:41.765Z,3.13
2023-04-30T02:40:08.868Z,2.90
2023-04-30T02:43:32.777Z,3.20
2023-04-30T02:46:57.259Z,3.40
2023-04-30T02:50:20.869Z,3.70
2023-04-30T02:53:44.776Z,3.23
2023-04-30T02:57:10.167Z,2.87
2023-04-30T03:00:34.051Z,3.20
2023-04-30T03:03:58.526Z,2.87
2023-04-30T03:07:22.580Z,3.47
2023-04-30T03:10:46.500Z,3.37
2023-04-30T03:14:11.594Z,3.87
2023-04-30T03:17:35.614Z,3.23
2023-04-30T03:20:59.648Z,3.73
2023-04-30T03:24:25.071Z,3.43
2023-04-30T03:27:49.093Z,3.63
2023-04-30T03:31:13.983Z,2.93
2023-04-30T03:34:38.057Z,3.00
2023-04-30T03:38:02.516Z,3.43
2023-04-30T03:41:27.574Z,3.10
2023-04-30T03:44:51.492Z,3.83
2023-04-30T03:48:16.758Z,2.60
2023-04-30T03:51:42.060Z,3.40
2023-04-30T03:55:07.293Z,3.70
2023-04-30T03:58:31.429Z,3.43
2023-04-30T04:01:55.791Z,3.07
2023-04-30T04:05:21.212Z,3.30
2023-04-30T04:08:45.924Z,2.70
2023-04-30T04:12:09.823Z,3.70
2023-04-30T04:15:33.911Z,3.40
2023-04-30T04:18:58.522Z,3.27
2023-04-30T04:22:24.919Z,4.03
2023-04-30T04:25:49.586Z,3.07
2023-04-30T04:29:13.823Z,3.20
2023-04-30T04:32:46.901Z,4.30
2023-04-30T04:36:11.397Z,2.80
2023-04-30T04:39:37.520Z,3.13
2023-04-30T04:43:01.723Z,3.37
2023-04-30T04:46:28.418Z,3.40
2023-04-30T04:49:52.819Z,3.10
2023-04-30T04:53:16.425Z,3.30
2023-04-30T04:56:41.587Z,2.90
2023-04-30T05:00:08.073Z,3.40
2023-04-30T05:03:32.606Z,2.90
2023-04-30T05:06:56.734Z,3.43
2023-04-30T05:10:20.848Z,3.30
2023-04-30T05:13:45.688Z,3.17
2023-04-30T05:17:09.186Z,3.43
2023-04-30T05:20:33.155Z,3.20
2023-04-30T05:23:57.118Z,4.00
2023-04-30T05:27:21.037Z,3.50
2023-04-30T05:30:45.890Z,3.30
2023-04-30T05:34:09.754Z,3.70
2023-04-30T05:37:33.534Z,3.30
2023-04-30T05:40:57.398Z,3.27
2023-04-30T05:44:21.330Z,3.30
2023-04-30T05:47:46.120Z,2.87
2023-04-30T05:51:10.718Z,3.30
2023-04-30T05:54:34.847Z,3.23
2023-04-30T05:57:58.615Z,3.40
2023-04-30T06:01:23.213Z,2.60
2023-04-30T06:04:49.108Z,3.27
2023-04-30T06:08:12.969Z,3.50
2023-04-30T06:11:37.264Z,3.67
2023-04-30T06:15:01.234Z,5.83
2023-04-30T06:18:25.539Z,3.40
2023-04-30T06:21:50.756Z,3.03
2023-04-30T06:25:14.702Z,3.00
2023-04-30T06:28:38.587Z,3.30
2023-04-30T06:32:02.467Z,3.37
2023-04-30T06:35:26.242Z,3.37
2023-04-30T06:38:51.420Z,3.47
2023-04-30T06:42:14.920Z,4.67
2023-04-30T06:45:38.969Z,3.23
2023-04-30T06:49:02.914Z,4.20
2023-04-30T06:52:26.737Z,2.70
2023-04-30T06:55:52.525Z,2.90
2023-04-30T06:59:16.567Z,3.40
2023-04-30T07:02:40.490Z,3.47
2023-04-30T07:06:04.527Z,3.00
2023-04-30T07:09:28.914Z,3.70
2023-04-30T07:12:54.136Z,2.70
2023-04-30T07:16:18.130Z,3.80
2023-04-30T07:19:42.212Z,3.00
2023-04-30T07:23:06.071Z,3.47
2023-04-30T07:26:29.554Z,3.30
2023-04-30T07:29:55.178Z,3.37
2023-04-30T07:33:19.375Z,3.17
2023-04-30T07:36:43.568Z,3.20
2023-04-30T07:40:15.355Z,3.67
2023-04-30T07:43:43.337Z,3.37
2023-04-30T07:47:09.870Z,3.27
2023-04-30T07:50:34.628Z,2.67
2023-04-30T07:53:58.418Z,2.80
2023-04-30T07:57:22.284Z,2.70
2023-04-30T08:00:46.498Z,2.97
2023-04-30T08:04:12.406Z,3.33
2023-04-30T08:07:36.490Z,2.47
2023-04-30T08:11:00.002Z,3.03
2023-04-30T08:14:23.853Z,2.70
2023-04-30T08:17:47.768Z,2.70
2023-04-30T08:21:13.576Z,2.30
2023-04-30T08:24:37.376Z,2.60
2023-04-30T08:28:01.447Z,2.40
2023-04-30T08:31:25.503Z,2.50
2023-04-30T08:34:49.373Z,2.10
2023-04-30T08:38:14.642Z,1.80
2023-04-30T08:41:40.640Z,2.20
2023-04-30T08:45:05.722Z,3.10
2023-04-30T08:48:30.739Z,1.80
2023-04-30T08:51:54.665Z,2.10
2023-04-30T08:55:19.930Z,2.10
2023-04-30T08:58:43.817Z,1.73
2023-04-30T09:02:10.492Z,1.83
2023-04-30T09:05:34.198Z,1.60
2023-04-30T09:08:58.154Z,1.40
2023-04-30T09:12:23.433Z,2.00
2023-04-30T09:15:52.876Z,1.77
2023-04-30T09:19:25.731Z,2.10
2023-04-30T09:22:49.614Z,1.87
2023-04-30T09:26:22.781Z,2.10
2023-04-30T09:29:48.184Z,1.87
2023-04-30T09:33:12.585Z,2.20
2023-04-30T09:36:36.836Z,1.53
2023-04-30T09:40:00.844Z,1.53
2023-04-30T09:43:24.955Z,1.73
2023-04-30T09:46:52.211Z,1.47
2023-04-30T09:50:16.136Z,1.80
2023-04-30T09:53:41.670Z,1.50
2023-04-30T09:57:11.382Z,1.73
2023-04-30T10:00:36.557Z,3.03
2023-04-30T10:04:02.523Z,1.90
2023-04-30T10:07:32.318Z,1.50
2023-04-30T10:11:01.686Z,1.73
2023-04-30T10:14:30.034Z,1.53
2023-04-30T10:18:03.499Z,1.30
2023-04-30T10:21:29.260Z,1.67
2023-04-30T10:24:53.806Z,1.50
2023-04-30T10:28:17.625Z,1.53
2023-04-30T10:31:44.270Z,1.40
2023-04-30T10:35:16.760Z,1.33
2023-04-30T10:38:42.583Z,1.40
2023-04-30T10:42:07.901Z,1.50
2023-04-30T10:45:39.096Z,1.60
2023-04-30T10:49:03.049Z,1.83
2023-04-30T10:52:30.538Z,1.90
2023-04-30T10:55:59.723Z,1.70
2023-04-30T10:59:24.451Z,2.00
2023-04-30T11:02:49.859Z,1.70
2023-04-30T11:06:15.022Z,2.10
2023-04-30T11:09:42.408Z,1.70
2023-04-30T11:13:10.294Z,3.90
2023-04-30T11:16:36.988Z,1.90
2023-04-30T11:20:02.272Z,2.00
2023-04-30T11:23:38.382Z,3.90
2023-04-30T11:27:06.555Z,1.50
2023-04-30T11:30:32.064Z,1.50
2023-04-30T11:33:57.450Z,1.90
2023-04-30T11:37:23.368Z,1.83
2023-04-30T11:40:48.918Z,1.90
2023-04-30T11:44:24.688Z,2.10
2023-04-30T11:47:51.527Z,1.70
2023-04-30T11:51:20.259Z,1.70
2023-04-30T11:54:44.112Z,1.90
2023-04-30T11:58:11.460Z,1.77
2023-04-30T12:01:35.361Z,1.87
2023-04-30T12:05:00.673Z,1.40
2023-04-30T12:08:25.170Z,1.93
2023-04-30T12:11:50.034Z,2.03
2023-04-30T12:15:16.393Z,1.50
2023-04-30T12:18:40.302Z,1.43
2023-04-30T12:22:05.655Z,1.50
2023-04-30T12:25:30.939Z,1.97
2023-04-30T12:28:56.837Z,1.40
2023-04-30T12:32:21.901Z,1.60
2023-04-30T12:35:45.889Z,1.60
2023-04-30T12:39:13.087Z,2.90
2023-04-30T12:42:37.590Z,1.90
2023-04-30T12:46:01.170Z,2.17
2023-04-30T12:49:29.334Z,1.40
2023-04-30T12:52:53.165Z,1.73
2023-04-30T12:56:19.614Z,1.60
2023-04-30T13:00:00.246Z,1.60
2023-04-30T13:03:24.571Z,1.70
2023-04-30T13:06:49.783Z,1.40
2023-04-30T13:10:16.859Z,2.17
2023-04-30T13:13:46.783Z,1.50
2023-04-30T13:17:13.884Z,1.50
2023-04-30T13:20:37.921Z,1.40
2023-04-30T13:24:01.892Z,1.60
2023-04-30T13:27:25.906Z,2.20
2023-04-30T13:30:51.065Z,2.20
2023-04-30T13:34:16.290Z,1.80
2023-04-30T13:37:40.917Z,1.70
2023-04-30T13:41:04.846Z,1.93
2023-04-30T13:44:28.645Z,2.07
2023-04-30T13:47:53.820Z,2.50
2023-04-30T13:51:17.823Z,1.60
2023-04-30T13:54:41.984Z,1.33
2023-04-30T13:58:05.870Z,2.10
2023-04-30T14:01:29.891Z,1.60
2023-04-30T14:05:05.410Z,1.50
2023-04-30T14:08:31.098Z,1.30
2023-04-30T14:11:55.994Z,1.63
2023-04-30T14:15:19.951Z,2.00
2023-04-30T14:18:43.851Z,2.10
2023-04-30T14:22:09.145Z,1.80
2023-04-30T14:25:33.024Z,1.63
2023-04-30T14:28:58.282Z,1.60
2023-04-30T14:32:22.280Z,1.60
2023-04-30T14:35:47.368Z,2.10
2023-04-30T14:39:12.897Z,1.50
2023-04-30T14:42:36.630Z,1.60
2023-04-30T14:46:00.501Z,1.87
2023-04-30T14:49:24.406Z,1.40
2023-04-30T14:52:48.235Z,1.70
2023-04-30T14:56:13.153Z,1.80
2023-04-30T14:59:38.799Z,1.50
2023-04-30T15:03:02.658Z,1.60
2023-04-30T15:06:26.882Z,1.43
2023-04-30T15:09:51.589Z,1.70
2023-04-30T15:13:16.761Z,1.60
2023-04-30T15:16:40.780Z,1.90
2023-04-30T15:20:04.828Z,1.60
2023-04-30T15:23:28.790Z,1.37
2023-04-30T15:26:54.788Z,2.20
2023-04-30T15:30:21.494Z,1.50
2023-04-30T15:33:45.027Z,1.67
2023-04-30T15:37:09.769Z,1.50
2023-04-30T15:40:33.590Z,1.40
2023-04-30T15:43:57.435Z,1.50
2023-04-30T15:47:24.003Z,1.63
2023-04-30T15:50:48.540Z,2.00
2023-04-30T15:54:13.350Z,2.07
2023-04-30T15:57:37.385Z,2.00
2023-04-30T16:01:01.912Z,2.17
2023-04-30T16:04:27.199Z,1.57
2023-04-30T16:07:53.318Z,1.60
2023-04-30T16:11:17.250Z,1.60
2023-04-30T16:14:41.301Z,1.73
2023-04-30T16:18:05.310Z,1.60
2023-04-30T16:21:34.623Z,1.60
2023-04-30T16:24:59.686Z,2.40
2023-04-30T16:28:28.086Z,1.73
2023-04-30T16:31:52.157Z,1.90
2023-04-30T16:35:16.355Z,1.83
2023-04-30T16:38:41.843Z,2.60
2023-04-30T16:42:05.859Z,1.60
2023-04-30T16:45:30.288Z,1.70
2023-04-30T16:48:54.667Z,1.90
2023-04-30T16:52:20.076Z,2.20
2023-04-30T16:55:45.120Z,1.67
2023-04-30T16:59:09.178Z,1.87
2023-04-30T17:02:33.385Z,1.97
2023-04-30T17:05:57.839Z,1.30
2023-04-30T17:09:21.816Z,1.40
2023-04-30T17:12:47.051Z,1.50
2023-04-30T17:16:11.101Z,2.83
2023-04-30T17:19:35.037Z,2.10
2023-04-30T17:22:59.196Z,1.77
2023-04-30T17:26:23.672Z,1.47
2023-04-30T17:29:48.568Z,1.43
2023-04-30T17:33:12.422Z,1.50
2023-04-30T17:36:36.554Z,1.43
2023-04-30T17:40:00.568Z,1.50
2023-04-30T17:43:24.548Z,1.30
2023-04-30T17:46:50.091Z,1.60
2023-04-30T17:50:14.129Z,1.60
2023-04-30T17:53:37.885Z,1.90
2023-04-30T17:57:02.254Z,1.40
2023-04-30T18:00:26.236Z,1.70
2023-04-30T18:03:51.749Z,1.40
2023-04-30T18:07:15.780Z,1.53
2023-04-30T18:10:39.679Z,1.40
2023-04-30T18:14:04.656Z,1.50
2023-04-30T18:17:28.654Z,1.70
2023-04-30T18:20:54.049Z,1.60
2023-04-30T18:24:19.101Z,1.40
2023-04-30T18:27:43.004Z,1.60
2023-04-30T18:31:06.623Z,2.33
2023-04-30T18:34:30.445Z,1.40
2023-04-30T18:37:55.945Z,1.70
2023-04-30T18:41:21.071Z,2.20
2023-04-30T18:44:45.022Z,1.70
2023-04-30T18:48:09.077Z,2.20
2023-04-30T18:51:33.197Z,1.83
2023-04-30T18:54:58.329Z,2.23
2023-04-30T18:58:22.211Z,5.27
2023-04-30T19:01:46.735Z,11.10
2023-04-30T19:05:11.051Z,12.03
2023-04-30T19:08:38.437Z,10.23
2023-04-30T19:12:04.380Z,6.97
2023-04-30T19:15:29.867Z,5.53
2023-04-30T19:18:53.961Z,4.53
2023-04-30T19:22:18.131Z,3.03
2023-04-30T19:25:42.148Z,2.43
2023-04-30T19:29:07.467Z,3.10
2023-04-30T19:32:31.709Z,3.00
2023-04-30T19:35:57.759Z,2.07
2023-04-30T19:39:21.664Z,2.10
2023-04-30T19:42:47.622Z,2.00
2023-04-30T19:46:13.214Z,1.97
2023-04-30T19:49:37.697Z,2.10
2023-04-30T19:53:01.627Z,4.30
2023-04-30T19:56:25.727Z,1.57
2023-04-30T19:59:49.612Z,2.07
2023-04-30T20:03:17.105Z,1.67
2023-04-30T20:06:41.356Z,1.70
2023-04-30T20:10:05.933Z,2.30
2023-04-30T20:13:29.906Z,1.77
2023-04-30T20:16:54.972Z,2.90
2023-04-30T20:20:21.107Z,1.37
2023-04-30T20:23:44.975Z,1.60
2023-04-30T20:27:08.929Z,1.80
2023-04-30T20:30:33.671Z,1.83
2023-04-30T20:33:58.436Z,1.53
2023-04-30T20:37:23.998Z,2.00
2023-04-30T20:40:48.477Z,1.87
2023-04-30T20:44:12.550Z,1.67
2023-04-30T20:47:36.730Z,1.40
2023-04-30T20:51:00.960Z,1.60
2023-04-30T20:54:26.806Z,1.60
2023-04-30T20:57:51.101Z,2.23
2023-04-30T21:01:15.151Z,1.50
2023-04-30T21:04:39.297Z,2.57
2023-04-30T21:08:03.484Z,2.00
2023-04-30T21:11:29.230Z,2.20
2023-04-30T21:14:54.319Z,1.50
2023-04-30T21:18:18.430Z,1.50
2023-04-30T21:21:42.487Z,1.60
2023-04-30T21:25:07.685Z,1.63
2023-04-30T21:28:33.656Z,1.63
2023-04-30T21:31:58.358Z,1.50
2023-04-30T21:35:22.373Z,1.50
2023-04-30T21:38:46.178Z,1.50
2023-04-30T21:42:10.010Z,1.43
2023-04-30T21:45:35.340Z,1.60
2023-04-30T21:48:59.166Z,1.50
2023-04-30T21:52:23.106Z,2.93
2023-04-30T21:55:48.193Z,1.90
2023-04-30T21:59:12.263Z,2.70
2023-04-30T22:02:37.818Z,2.23
2023-04-30T22:06:01.771Z,2.03
2023-04-30T22:09:25.815Z,2.50
2023-04-30T22:12:49.644Z,2.67
2023-04-30T22:16:13.547Z,2.60
2023-04-30T22:19:38.757Z,2.97
2023-04-30T22:23:02.495Z,2.60
2023-04-30T22:26:26.778Z,2.47
2023-04-30T22:29:51.226Z,2.10
2023-04-30T22:33:15.121Z,3.50
2023-04-30T22:36:40.485Z,2.47
2023-04-30T22:40:06.076Z,2.47
2023-04-30T22:43:31.120Z,2.53
2023-04-30T22:46:58.064Z,2.60
2023-04-30T22:50:22.074Z,3.20
2023-04-30T22:53:47.498Z,3.27
2023-04-30T22:57:11.331Z,2.97
2023-04-30T23:00:35.257Z,3.07
2023-04-30T23:03:59.196Z,2.40
2023-04-30T23:07:23.056Z,3.10
2023-04-30T23:10:48.711Z,3.60
2023-04-30T23:14:12.532Z,2.10
2023-04-30T23:17:36.419Z,2.00
2023-04-30T23:21:00.165Z,2.40
2023-04-30T23:24:23.938Z,3.30
2023-04-30T23:27:49.070Z,2.20
2023-04-30T23:31:12.807Z,2.20
2023-04-30T23:34:36.901Z,2.93
2023-04-30T23:38:00.728Z,2.63
2023-04-30T23:41:24.749Z,2.77
2023-04-30T23:44:49.893Z,2.40
2023-04-30T23:48:13.658Z,3.90
2023-04-30T23:51:37.886Z,2.13
2023-04-30T23:55:01.661Z,2.80
2023-04-30T23:58:25.892Z,2.60
